Time;durP1;ratioP1;P1;durP2;ratioP2;P2;SDS_P1;SDS_P2;PMS_P1;PMS_P2;Temp;Humidity;BMP_temperature;BMP_pressure;BME280_temperature;BME280_humidity;BME280_pressure;Samples;Min_cycle;Max_cycle;Signal;HPM_P1;HPM_P2
2021/11/16 00:01:12;;;;;;;9.82;7.57;;;1.80;77.30;;;;;;5108883;28;20027;-76
2021/11/16 00:03:39;;;;;;;10.73;7.00;;;1.80;77.40;;;;;;5107102;28;20382;-76
2021/11/16 00:06:05;;;;;;;10.15;6.60;;;1.80;77.60;;;;;;5116913;27;20027;-76
2021/11/16 00:08:31;;;;;;;19.13;13.75;;;1.80;78.40;;;;;;5099184;28;20138;-75
2021/11/16 00:10:56;;;;;;;12.68;8.90;;;1.80;77.70;;;;;;5125404;27;20114;-76
2021/11/16 00:13:22;;;;;;;11.07;8.70;;;1.80;78.00;;;;;;5125770;27;20024;-76
2021/11/16 00:15:48;;;;;;;13.68;10.38;;;1.80;78.20;;;;;;5125303;27;20036;-76
2021/11/16 00:18:19;;;;;;;14.50;8.80;;;1.80;78.30;;;;;;5133957;27;20023;-76
2021/11/16 00:20:46;;;;;;;13.77;11.88;;;1.80;78.60;;;;;;5110604;28;20032;-76
2021/11/16 00:23:22;;;;;;;21.83;11.48;;;1.80;78.80;;;;;;5113187;27;20043;-75
2021/11/16 00:25:53;;;;;;;20.08;13.85;;;1.80;78.90;;;;;;5131822;27;20027;-77
2021/11/16 00:28:20;;;;;;;25.83;14.23;;;1.80;79.10;;;;;;5110646;27;20031;-77
2021/11/16 00:30:46;;;;;;;16.92;10.65;;;1.70;79.10;;;;;;5121152;27;20165;-76
2021/11/16 00:33:12;;;;;;;9.95;7.55;;;1.70;79.30;;;;;;5124647;27;20055;-77
2021/11/16 00:35:38;;;;;;;19.23;12.80;;;1.70;79.40;;;;;;5115026;27;20023;-78
2021/11/16 00:38:06;;;;;;;52.17;23.98;;;1.70;79.40;;;;;;5127369;27;20020;-77
2021/11/16 00:40:32;;;;;;;20.15;12.70;;;1.70;79.50;;;;;;5106441;28;20427;-76
2021/11/16 00:42:58;;;;;;;11.27;8.65;;;1.70;79.50;;;;;;5128352;27;20020;-76
2021/11/16 00:45:26;;;;;;;8.45;7.03;;;1.70;79.30;;;;;;5116533;28;20024;-75
2021/11/16 00:47:52;;;;;;;9.15;7.55;;;1.60;79.10;;;;;;5116560;28;20027;-77
2021/11/16 00:50:20;;;;;;;11.52;7.50;;;1.60;78.70;;;;;;5116752;28;20385;-76
2021/11/16 00:52:46;;;;;;;11.13;8.43;;;1.60;78.40;;;;;;5098552;28;20028;-77
2021/11/16 00:55:12;;;;;;;10.88;8.15;;;1.60;78.10;;;;;;5124404;27;20028;-76
2021/11/16 00:57:38;;;;;;;12.13;9.02;;;1.50;77.80;;;;;;5105616;27;20394;-76
2021/11/16 01:00:06;;;;;;;11.68;8.75;;;1.50;77.70;;;;;;5124422;27;20020;-76
2021/11/16 01:02:32;;;;;;;14.10;9.80;;;1.50;77.60;;;;;;5123200;27;20108;-76
2021/11/16 01:04:58;;;;;;;13.82;9.65;;;1.40;77.40;;;;;;5127819;27;20077;-75
2021/11/16 01:07:23;;;;;;;14.65;10.60;;;1.40;77.40;;;;;;5111343;27;20095;-75
2021/11/16 01:09:49;;;;;;;13.55;10.43;;;1.40;77.30;;;;;;5135350;27;20051;-75
2021/11/16 01:12:16;;;;;;;16.25;13.50;;;1.30;77.20;;;;;;5125512;27;20030;-76
2021/11/16 01:14:43;;;;;;;15.60;12.57;;;1.30;77.30;;;;;;5130459;27;20040;-75
2021/11/16 01:17:09;;;;;;;29.27;23.00;;;1.20;77.10;;;;;;5109548;27;20031;-76
2021/11/16 01:19:35;;;;;;;31.85;25.33;;;1.20;77.20;;;;;;5109064;27;20374;-77
2021/11/16 01:22:02;;;;;;;30.77;23.80;;;1.20;77.30;;;;;;5125071;27;20052;-76
2021/11/16 01:24:28;;;;;;;20.63;16.40;;;1.20;77.30;;;;;;5108520;28;20027;-76
2021/11/16 01:26:54;;;;;;;21.67;15.40;;;1.10;77.20;;;;;;5130987;27;20461;-76
2021/11/16 01:29:20;;;;;;;26.70;17.90;;;1.10;77.30;;;;;;5123474;27;20023;-76
2021/11/16 01:31:49;;;;;;;28.25;18.50;;;1.10;77.30;;;;;;5113389;27;20027;-76
2021/11/16 01:34:17;;;;;;;35.50;22.95;;;1.10;77.30;;;;;;5105364;28;20026;-76
2021/11/16 01:36:42;;;;;;;29.65;20.25;;;1.00;77.30;;;;;;5106481;27;20031;-76
2021/11/16 01:39:08;;;;;;;33.78;20.92;;;1.00;77.30;;;;;;5132199;27;20034;-74
2021/11/16 01:41:34;;;;;;;35.75;22.83;;;1.00;77.30;;;;;;5118522;27;20070;-76
2021/11/16 01:44:02;;;;;;;38.03;26.45;;;0.90;77.30;;;;;;5122372;27;20381;-76
2021/11/16 01:46:27;;;;;;;32.97;22.95;;;0.90;77.40;;;;;;5112155;27;20160;-75
2021/11/16 01:48:55;;;;;;;26.20;16.70;;;0.90;77.40;;;;;;5108916;27;20126;-76
2021/11/16 01:51:25;;;;;;;18.58;14.25;;;0.90;77.50;;;;;;5108557;27;20384;-75
2021/11/16 01:53:56;;;;;;;19.48;14.65;;;0.80;77.60;;;;;;5093184;28;20035;-76
2021/11/16 01:56:22;;;;;;;22.27;16.67;;;0.80;77.70;;;;;;5105430;27;20024;-75
2021/11/16 01:58:47;;;;;;;17.48;11.63;;;0.80;77.80;;;;;;5123312;27;20055;-75
2021/11/16 02:01:13;;;;;;;17.67;12.00;;;0.80;77.90;;;;;;5097753;28;20023;-75
2021/11/16 02:03:39;;;;;;;16.40;11.10;;;0.80;78.00;;;;;;5127263;27;20031;-76
2021/11/16 02:06:19;;;;;;;21.88;16.45;;;0.80;77.90;;;;;;5130862;27;20023;-76
2021/11/16 02:08:47;;;;;;;20.92;13.95;;;0.80;77.80;;;;;;5102606;27;20392;-74
2021/11/16 02:11:12;;;;;;;17.80;12.95;;;0.70;77.80;;;;;;5109222;28;20075;-76
2021/11/16 02:13:38;;;;;;;13.10;10.63;;;0.70;78.00;;;;;;5100378;27;20059;-77
2021/11/16 02:16:04;;;;;;;14.23;11.48;;;0.70;78.20;;;;;;5109254;28;20089;-76
2021/11/16 02:18:30;;;;;;;14.25;11.07;;;0.70;78.20;;;;;;5098650;27;20027;-76
2021/11/16 02:20:56;;;;;;;14.43;10.60;;;0.70;78.30;;;;;;5102692;28;20032;-75
2021/11/16 02:23:22;;;;;;;14.30;10.93;;;0.70;78.20;;;;;;5112288;28;20023;-75
2021/11/16 02:25:51;;;;;;;13.90;10.27;;;0.60;78.20;;;;;;5107388;27;20019;-76
2021/11/16 02:28:18;;;;;;;16.02;11.18;;;0.60;78.30;;;;;;5115791;27;20047;-75
2021/11/16 02:30:45;;;;;;;13.13;10.55;;;0.60;78.30;;;;;;5116109;27;20034;-75
2021/11/16 02:33:13;;;;;;;14.07;10.32;;;0.60;78.40;;;;;;5125857;27;20128;-76
2021/11/16 02:35:39;;;;;;;12.50;9.38;;;0.60;78.50;;;;;;5111809;28;20118;-76
2021/11/16 02:38:05;;;;;;;14.82;8.90;;;0.60;78.50;;;;;;5106589;27;20209;-77
2021/11/16 02:40:31;;;;;;;11.15;8.95;;;0.60;78.50;;;;;;5130549;27;20038;-77
2021/11/16 02:42:56;;;;;;;12.10;8.45;;;0.60;78.40;;;;;;5121304;27;20127;-76
2021/11/16 02:45:23;;;;;;;13.40;10.57;;;0.60;78.30;;;;;;5120731;27;20465;-76
2021/11/16 02:47:49;;;;;;;11.60;9.07;;;0.50;78.20;;;;;;5115027;27;20039;-77
2021/11/16 02:50:16;;;;;;;10.25;8.05;;;0.50;78.20;;;;;;5123920;27;20088;-77
2021/11/16 02:52:43;;;;;;;14.13;8.55;;;0.40;78.30;;;;;;5101189;27;20031;-77
2021/11/16 02:55:09;;;;;;;13.57;9.05;;;0.30;78.30;;;;;;5124110;27;20031;-78
2021/11/16 02:57:35;;;;;;;11.68;8.95;;;0.30;78.40;;;;;;5104458;28;20031;-76
2021/11/16 03:00:13;;;;;;;10.77;8.23;;;0.30;78.40;;;;;;5113045;27;20525;-76
2021/11/16 03:02:44;;;;;;;10.45;8.45;;;0.30;78.60;;;;;;5108423;28;20032;-75
2021/11/16 03:05:12;;;;;;;10.38;8.07;;;0.30;78.70;;;;;;5111923;28;20496;-76
2021/11/16 03:07:48;;;;;;;12.57;9.35;;;0.20;78.70;;;;;;5118250;28;20052;-76
2021/11/16 03:10:15;;;;;;;;;;;0.10;78.70;;;;;;5100337;28;20121;-77
2021/11/16 03:12:44;;;;;;;13.50;9.40;;;0.10;78.50;;;;;;5101922;28;19908;-78
2021/11/16 03:15:10;;;;;;;12.20;9.65;;;0.00;78.90;;;;;;5104989;28;20031;-76
2021/11/16 03:17:36;;;;;;;13.45;9.82;;;0.00;79.10;;;;;;5121512;28;20419;-77
2021/11/16 03:20:08;;;;;;;12.00;9.38;;;0.00;79.00;;;;;;5103530;28;20024;-77
2021/11/16 03:22:51;;;;;;;10.40;8.90;;;-0.10;79.10;;;;;;5109504;28;20556;-76
2021/11/16 03:25:25;;;;;;;11.35;8.55;;;-0.10;79.10;;;;;;5124299;28;20020;-76
2021/11/16 03:28:02;;;;;;;12.68;8.90;;;-0.10;79.10;;;;;;5111999;28;20043;-76
2021/11/16 03:30:29;;;;;;;12.43;8.32;;;-0.10;79.10;;;;;;5107126;28;20462;-76
2021/11/16 03:32:55;;;;;;;10.95;8.82;;;-0.20;78.90;;;;;;5124057;27;20067;-76
2021/11/16 03:35:21;;;;;;;10.45;8.48;;;-0.20;78.90;;;;;;5124018;27;20497;-75
2021/11/16 03:37:50;;;;;;;10.63;8.63;;;-0.20;78.80;;;;;;5117770;28;20114;-75
2021/11/16 03:40:17;;;;;;;10.13;8.18;;;-0.20;78.60;;;;;;5118141;28;20132;-75
2021/11/16 03:42:46;;;;;;;11.38;9.27;;;-0.30;78.50;;;;;;5099315;28;20058;-77
2021/11/16 03:45:14;;;;;;;10.18;8.25;;;-0.30;78.50;;;;;;5117902;28;20030;-76
2021/11/16 03:47:40;;;;;;;9.82;8.82;;;-0.30;78.30;;;;;;5117608;28;20036;-76
2021/11/16 03:50:08;;;;;;;11.05;8.52;;;-0.20;78.20;;;;;;5137179;27;20028;-76
2021/11/16 03:52:38;;;;;;;11.70;8.70;;;-0.30;78.10;;;;;;5124744;27;20112;-75
2021/11/16 03:55:05;;;;;;;11.18;9.25;;;-0.30;78.00;;;;;;5142208;27;20030;-76
2021/11/16 03:57:30;;;;;;;15.43;11.35;;;-0.30;78.00;;;;;;5106614;28;20030;-75
2021/11/16 03:59:56;;;;;;;498.83;200.10;;;-0.30;77.90;;;;;;5115471;27;20528;-75
2021/11/16 04:02:22;;;;;;;30.35;18.10;;;-0.40;77.70;;;;;;5119116;27;20361;-76
2021/11/16 04:04:53;;;;;;;67.72;40.20;;;-0.40;77.70;;;;;;5103525;27;20031;-75
2021/11/16 04:07:19;;;;;;;52.50;34.42;;;-0.40;77.70;;;;;;5135450;27;20465;-74
2021/11/16 04:09:44;;;;;;;66.78;46.13;;;-0.40;77.70;;;;;;5123568;27;20095;-76
2021/11/16 04:12:10;;;;;;;42.75;35.50;;;-0.50;77.70;;;;;;5103484;27;20038;-76
2021/11/16 04:14:36;;;;;;;43.13;33.35;;;-0.50;77.70;;;;;;5128246;27;20027;-75
2021/11/16 04:17:02;;;;;;;37.65;26.95;;;-0.50;77.80;;;;;;5125180;27;20039;-74
2021/11/16 04:19:27;;;;;;;24.73;18.90;;;-0.50;77.80;;;;;;5126091;27;20034;-75
2021/11/16 04:21:53;;;;;;;35.92;26.17;;;-0.60;77.80;;;;;;5126259;27;20028;-76
2021/11/16 04:24:19;;;;;;;26.35;16.65;;;-0.60;77.80;;;;;;5115144;27;20023;-76
2021/11/16 04:26:44;;;;;;;21.52;15.23;;;-0.60;77.80;;;;;;5121035;27;20039;-76
2021/11/16 04:29:10;;;;;;;22.17;15.70;;;-0.60;77.80;;;;;;5105428;28;20028;-75
2021/11/16 04:31:36;;;;;;;25.70;16.77;;;-0.60;78.00;;;;;;5125668;27;20030;-75
2021/11/16 04:34:06;;;;;;;21.73;15.93;;;-0.60;78.00;;;;;;5105463;28;20456;-74
2021/11/16 04:36:33;;;;;;;45.40;28.35;;;-0.60;78.00;;;;;;5106713;27;20385;-75
2021/11/16 04:39:00;;;;;;;22.40;16.15;;;-0.60;78.10;;;;;;5120355;27;20019;-74
2021/11/16 04:41:26;;;;;;;20.88;15.27;;;-0.60;78.10;;;;;;5124705;27;20028;-74
2021/11/16 04:43:52;;;;;;;29.15;18.48;;;-0.70;78.10;;;;;;5120557;27;20054;-75
2021/11/16 04:46:20;;;;;;;33.42;21.00;;;-0.70;78.20;;;;;;5135590;27;20465;-75
2021/11/16 05:04:42;;;;;;;38.58;28.98;;;-0.80;78.60;;;;;;5132160;27;20077;-75
2021/11/16 05:07:16;;;;;;;29.55;22.80;;;-0.80;78.60;;;;;;5123016;27;20051;-76
2021/11/16 05:09:50;;;;;;;37.83;27.13;;;-0.70;79.00;;;;;;5121954;27;20038;-77
2021/11/16 05:12:16;;;;;;;56.00;36.63;;;-0.70;79.30;;;;;;5112303;27;20130;-75
2021/11/16 05:14:42;;;;;;;46.20;30.67;;;-0.50;79.40;;;;;;5104000;27;20023;-75
2021/11/16 05:17:08;;;;;;;37.38;27.58;;;-0.30;79.20;;;;;;5109248;27;20447;-76
2021/11/16 05:19:34;;;;;;;40.90;29.52;;;-0.10;78.90;;;;;;5106025;28;20027;-75
2021/11/16 05:21:59;;;;;;;38.90;26.25;;;0.20;78.30;;;;;;5096526;28;20039;-75
2021/11/16 05:24:25;;;;;;;71.15;35.20;;;0.50;77.70;;;;;;5100452;27;20027;-75
2021/11/16 05:26:52;;;;;;;53.30;35.25;;;0.90;76.90;;;;;;5081507;28;20142;-74
2021/11/16 05:29:21;;;;;;;68.22;39.35;;;1.30;75.90;;;;;;5079099;27;20422;-76
2021/11/16 05:31:47;;;;;;;57.55;31.95;;;1.80;75.00;;;;;;5093017;28;20086;-76
2021/11/16 05:34:12;;;;;;;54.83;34.70;;;2.20;73.80;;;;;;5100733;27;20495;-77
2021/11/16 05:36:38;;;;;;;36.78;22.80;;;2.70;72.80;;;;;;5120951;27;20019;-75
2021/11/16 05:39:05;;;;;;;34.90;22.65;;;3.20;71.70;;;;;;5130047;27;20061;-78
2021/11/16 05:41:31;;;;;;;30.70;20.55;;;3.70;70.20;;;;;;5113585;27;20027;-76
2021/11/16 05:43:58;;;;;;;29.70;20.10;;;4.20;69.10;;;;;;5101491;28;20026;-77
2021/11/16 05:46:24;;;;;;;24.40;16.58;;;4.60;67.80;;;;;;5118802;28;20047;-76
2021/11/16 05:48:53;;;;;;;26.55;17.52;;;5.10;66.90;;;;;;5107938;27;20074;-76
2021/11/16 05:51:21;;;;;;;22.17;15.20;;;5.50;65.60;;;;;;5109250;27;20027;-78
2021/11/16 05:53:52;;;;;;;20.83;13.40;;;5.90;64.50;;;;;;5113757;27;20059;-80
2021/11/16 05:56:23;;;;;;;22.45;12.75;;;6.20;63.30;;;;;;5103587;27;20769;-78
2021/11/16 05:58:53;;;;;;;18.00;12.45;;;6.50;62.30;;;;;;5099158;27;20120;-78
2021/11/16 06:01:22;;;;;;;18.73;12.20;;;6.90;61.40;;;;;;5113261;27;20475;-78
2021/11/16 06:03:52;;;;;;;20.00;13.52;;;7.30;59.90;;;;;;5119415;27;20031;-79
2021/11/16 06:06:27;;;;;;;21.70;14.60;;;7.70;59.00;;;;;;5104218;28;20019;-78
2021/11/16 06:08:54;;;;;;;22.52;13.68;;;8.00;57.40;;;;;;5097216;28;20052;-80
2021/11/16 06:11:22;;;;;;;24.75;15.63;;;8.50;57.20;;;;;;5095694;28;20059;-80
2021/11/16 06:13:50;;;;;;;37.15;19.02;;;8.90;56.10;;;;;;5094116;28;20020;-80
2021/11/16 06:16:16;;;;;;;31.50;18.40;;;9.30;55.10;;;;;;5086887;28;20118;-79
2021/11/16 06:18:52;;;;;;;25.33;17.85;;;9.60;54.30;;;;;;5095436;28;20446;-79
2021/11/16 06:21:18;;;;;;;;;;;9.70;52.90;;;;;;5097900;28;20058;-78
2021/11/16 06:23:44;;;;;;;29.50;16.17;;;9.90;55.00;;;;;;5097878;27;19921;-75
2021/11/16 06:26:10;;;;;;;27.65;16.58;;;10.40;54.00;;;;;;5117549;27;20456;-75
2021/11/16 06:28:38;;;;;;;22.58;14.38;;;10.70;51.20;;;;;;5118120;27;20456;-76
2021/11/16 06:31:04;;;;;;;27.33;16.88;;;10.90;50.50;;;;;;5098526;28;20575;-76
2021/11/16 06:33:30;;;;;;;35.83;15.65;;;11.00;50.00;;;;;;5112805;28;20024;-74
2021/11/16 06:35:56;;;;;;;33.17;16.88;;;11.20;49.60;;;;;;5111135;27;20059;-74
2021/11/16 06:38:21;;;;;;;29.60;13.95;;;11.50;49.00;;;;;;5117027;27;20465;-71
2021/11/16 06:40:47;;;;;;;16.10;9.93;;;11.70;48.00;;;;;;5099826;28;20496;-75
2021/11/16 06:43:24;;;;;;;20.65;11.13;;;11.90;47.40;;;;;;5120078;27;20027;-73
2021/11/16 06:45:54;;;;;;;24.58;11.18;;;12.30;46.30;;;;;;5109536;27;20031;-75
2021/11/16 06:48:21;;;;;;;23.52;9.63;;;12.40;46.30;;;;;;5098008;27;20088;-72
2021/11/16 06:50:48;;;;;;;17.02;9.40;;;12.70;46.40;;;;;;5122676;27;20065;-77
2021/11/16 06:53:22;;;;;;;13.80;8.52;;;12.90;45.40;;;;;;5113880;27;20066;-75
2021/11/16 06:55:48;;;;;;;17.50;9.00;;;13.30;44.40;;;;;;5117359;27;21248;-74
2021/11/16 06:58:14;;;;;;;11.88;7.82;;;13.60;43.60;;;;;;5124622;27;20015;-75
2021/11/16 07:00:39;;;;;;;7.45;5.15;;;13.80;43.00;;;;;;5131502;27;20031;-72
2021/11/16 07:03:05;;;;;;;10.77;5.47;;;13.80;42.00;;;;;;5099418;28;20051;-79
2021/11/16 07:05:31;;;;;;;9.60;4.82;;;13.90;41.90;;;;;;5096269;28;20038;-77
2021/11/16 07:07:57;;;;;;;7.70;4.82;;;13.70;41.50;;;;;;5117514;28;20109;-75
2021/11/16 07:10:31;;;;;;;7.00;4.50;;;13.50;41.50;;;;;;5098292;28;20054;-77
2021/11/16 07:13:08;;;;;;;9.82;4.63;;;13.50;41.50;;;;;;5120898;28;20377;-76
2021/11/16 07:15:35;;;;;;;7.47;4.40;;;13.50;41.40;;;;;;5101364;28;20032;-77
2021/11/16 07:18:05;;;;;;;12.30;4.97;;;13.60;41.70;;;;;;5122044;28;20043;-76
2021/11/16 07:20:31;;;;;;;6.88;4.03;;;13.80;41.50;;;;;;5098385;28;20426;-77
2021/11/16 07:22:58;;;;;;;8.70;4.68;;;13.90;40.70;;;;;;5111332;28;20055;-76
2021/11/16 07:25:24;;;;;;;12.40;3.83;;;13.70;40.20;;;;;;5104591;28;20055;-76
2021/11/16 07:27:54;;;;;;;8.43;5.38;;;13.40;40.20;;;;;;5123925;27;20058;-76
2021/11/16 07:30:30;;;;;;;5.85;3.90;;;13.30;40.90;;;;;;5123966;28;20458;-76
2021/11/16 07:33:11;;;;;;;8.70;4.50;;;13.20;40.50;;;;;;5118854;28;20111;-77
2021/11/16 07:35:38;;;;;;;7.65;4.10;;;13.10;40.60;;;;;;5112771;28;20161;-76
2021/11/16 07:38:08;;;;;;;5.88;4.00;;;13.00;40.90;;;;;;5112975;28;20042;-78
2021/11/16 07:40:35;;;;;;;7.75;4.55;;;12.90;40.30;;;;;;5112904;28;20526;-77
2021/11/16 07:43:08;;;;;;;7.85;4.50;;;12.70;41.30;;;;;;5113049;28;20027;-76
2021/11/16 07:45:41;;;;;;;9.38;4.22;;;12.80;41.70;;;;;;5112851;28;20430;-77
2021/11/16 07:48:13;;;;;;;9.90;4.30;;;13.10;41.30;;;;;;5113116;28;20027;-76
2021/11/16 07:50:46;;;;;;;5.57;3.70;;;13.20;41.20;;;;;;5113452;28;20095;-77
2021/11/16 07:53:17;;;;;;;7.90;4.00;;;13.30;40.50;;;;;;5113903;28;20024;-77
2021/11/16 07:56:04;;;;;;;11.95;5.10;;;13.40;39.90;;;;;;5095576;28;20474;-78
2021/11/16 07:58:36;;;;;;;7.68;3.85;;;13.30;40.50;;;;;;5094631;28;20032;-76
2021/11/16 08:01:08;;;;;;;6.07;3.38;;;13.50;40.90;;;;;;5113606;28;20077;-76
2021/11/16 08:03:44;;;;;;;14.35;4.15;;;13.60;39.90;;;;;;5095916;28;20028;-76
2021/11/16 08:11:22;;;;;;;5.47;3.25;;;14.20;39.90;;;;;;5113515;28;20034;-77
2021/11/16 08:14:00;;;;;;;7.57;3.28;;;14.30;38.80;;;;;;5114311;28;20027;-77
2021/11/16 08:16:30;;;;;;;7.55;3.92;;;14.20;38.30;;;;;;5102233;28;20461;-77
2021/11/16 08:19:05;;;;;;;9.20;6.00;;;14.20;39.10;;;;;;5107610;28;20027;-78
2021/11/16 08:21:32;;;;;;;5.95;3.45;;;14.30;39.40;;;;;;5123904;28;20023;-78
2021/11/16 08:24:02;;;;;;;9.20;5.50;;;14.50;38.40;;;;;;5117088;28;20512;-77
2021/11/16 08:26:33;;;;;;;18.73;9.80;;;14.50;38.40;;;;;;5099471;28;20024;-76
2021/11/16 08:29:01;;;;;;;11.75;5.38;;;14.60;38.60;;;;;;5098953;28;20039;-78
2021/11/16 08:31:34;;;;;;;6.03;3.80;;;14.60;37.70;;;;;;5117209;28;20028;-78
2021/11/16 08:34:00;;;;;;;7.95;3.30;;;14.50;38.00;;;;;;5117279;28;20031;-76
2021/11/16 08:36:28;;;;;;;4.43;3.25;;;14.40;37.90;;;;;;5098557;28;20446;-77
2021/11/16 08:38:56;;;;;;;9.57;5.40;;;14.40;38.50;;;;;;5117127;28;20108;-78
2021/11/16 08:41:31;;;;;;;5.55;3.60;;;14.60;38.50;;;;;;5117037;28;20027;-76
2021/11/16 08:44:12;;;;;;;4.53;3.22;;;15.00;37.90;;;;;;5098424;28;20027;-77
2021/11/16 08:46:38;;;;;;;4.57;3.30;;;15.20;37.20;;;;;;5117445;28;20023;-77
2021/11/16 08:49:05;;;;;;;4.80;3.30;;;14.80;36.60;;;;;;5116323;28;20040;-78
2021/11/16 08:51:41;;;;;;;5.88;4.10;;;14.60;37.50;;;;;;5116633;28;20507;-76
2021/11/16 08:54:07;;;;;;;5.90;3.95;;;14.60;37.40;;;;;;5098686;28;20027;-76
2021/11/16 08:56:37;;;;;;;5.50;3.40;;;14.70;37.50;;;;;;5098009;28;20487;-76
2021/11/16 08:59:14;;;;;;;3.20;2.72;;;14.90;36.90;;;;;;5098044;28;20049;-78
2021/11/16 09:01:51;;;;;;;5.22;3.53;;;15.00;36.40;;;;;;5116541;28;20362;-77
2021/11/16 09:04:29;;;;;;;4.78;3.10;;;15.20;36.00;;;;;;5097937;28;20038;-77
2021/11/16 09:06:56;;;;;;;5.15;3.65;;;15.20;35.80;;;;;;5097690;28;20126;-77
2021/11/16 09:09:22;;;;;;;5.57;3.97;;;15.10;36.30;;;;;;5098476;28;20082;-78
2021/11/16 09:12:05;;;;;;;5.40;3.75;;;15.10;36.00;;;;;;5122967;28;20051;-77
2021/11/16 09:14:31;;;;;;;5.82;3.50;;;15.10;36.10;;;;;;5105140;28;20020;-78
2021/11/16 09:16:59;;;;;;;4.43;3.25;;;15.20;36.00;;;;;;5116338;28;20019;-78
2021/11/16 09:19:31;;;;;;;5.57;3.40;;;15.30;35.70;;;;;;5098134;28;20069;-78
2021/11/16 09:21:58;;;;;;;4.07;3.10;;;15.10;35.40;;;;;;5097719;28;20370;-77
2021/11/16 09:24:33;;;;;;;5.00;3.53;;;14.80;35.90;;;;;;5097407;28;20023;-77
2021/11/16 09:27:12;;;;;;;6.75;3.83;;;14.90;36.10;;;;;;5098204;28;20027;-77
2021/11/16 09:29:40;;;;;;;6.90;4.50;;;14.90;36.50;;;;;;5098005;28;20063;-76
2021/11/16 09:32:11;;;;;;;7.05;3.97;;;14.60;36.50;;;;;;5115950;28;20035;-78
2021/11/16 09:34:40;;;;;;;4.18;2.97;;;14.90;36.70;;;;;;5097329;28;20057;-78
2021/11/16 09:37:08;;;;;;;4.13;3.10;;;15.00;36.00;;;;;;5116262;28;20031;-79
2021/11/16 09:39:36;;;;;;;6.07;3.63;;;15.00;35.50;;;;;;5116034;28;20385;-79
2021/11/16 09:42:05;;;;;;;3.83;2.70;;;15.10;36.30;;;;;;5097681;28;20031;-78
2021/11/16 09:44:43;;;;;;;5.00;3.63;;;15.40;35.50;;;;;;5115609;28;20446;-79
2021/11/16 09:47:19;;;;;;;3.85;3.10;;;15.30;35.30;;;;;;5115506;28;20038;-76
2021/11/16 09:49:52;;;;;;;4.80;3.50;;;15.00;35.30;;;;;;5115864;28;20027;-77
2021/11/16 09:52:22;;;;;;;5.90;4.07;;;14.90;35.90;;;;;;5115752;28;20069;-77
2021/11/16 09:54:56;;;;;;;6.72;3.67;;;15.10;35.80;;;;;;5115408;28;20052;-78
2021/11/16 09:57:32;;;;;;;3.63;2.80;;;15.20;35.70;;;;;;5115531;28;20027;-78
2021/11/16 10:00:15;;;;;;;4.18;2.67;;;15.60;35.30;;;;;;5115588;28;20035;-77
2021/11/16 10:02:50;;;;;;;5.35;3.13;;;15.60;34.40;;;;;;5099470;28;20169;-77
2021/11/16 10:05:20;;;;;;;6.38;4.10;;;15.50;35.10;;;;;;5122743;28;20031;-77
2021/11/16 10:07:49;;;;;;;6.72;3.70;;;15.70;35.30;;;;;;5105337;28;20431;-76
2021/11/16 10:10:16;;;;;;;6.97;4.22;;;15.90;34.60;;;;;;5102971;28;20024;-78
2021/11/16 10:12:46;;;;;;;5.00;3.33;;;15.90;34.40;;;;;;5116387;28;20057;-76
2021/11/16 10:15:16;;;;;;;10.38;5.15;;;16.00;34.40;;;;;;5115948;28;20030;-77
2021/11/16 10:17:43;;;;;;;7.22;3.45;;;16.30;34.40;;;;;;5097012;28;20080;-80
2021/11/16 10:20:14;;;;;;;9.40;4.15;;;16.30;34.00;;;;;;5096692;28;20028;-77
2021/11/16 10:22:48;;;;;;;8.82;4.25;;;16.10;34.00;;;;;;5096838;28;20354;-76
2021/11/16 10:25:32;;;;;;;6.68;4.55;;;16.20;34.50;;;;;;5114986;28;20034;-77
2021/11/16 10:28:08;;;;;;;5.00;3.65;;;16.30;34.40;;;;;;5096742;28;20035;-76
2021/11/16 10:30:34;;;;;;;10.98;6.38;;;16.30;34.20;;;;;;5096724;28;20432;-77
2021/11/16 10:33:13;;;;;;;5.22;4.00;;;16.10;34.30;;;;;;5096547;28;20024;-76
2021/11/16 10:35:59;;;;;;;5.65;4.18;;;16.00;34.40;;;;;;5096391;28;20019;-77
2021/11/16 10:38:36;;;;;;;5.35;3.75;;;16.10;34.10;;;;;;5114355;28;20430;-78
2021/11/16 10:41:05;;;;;;;5.78;3.60;;;16.10;34.10;;;;;;5114588;28;20056;-77
2021/11/16 10:43:40;;;;;;;7.72;4.43;;;16.30;34.20;;;;;;5096002;28;20031;-77
2021/11/16 10:46:07;;;;;;;4.95;3.63;;;16.00;34.00;;;;;;5096675;28;20580;-77
2021/11/16 10:48:35;;;;;;;6.10;4.00;;;15.90;34.50;;;;;;5114271;28;20059;-77
2021/11/16 10:51:06;;;;;;;13.13;7.68;;;16.00;34.20;;;;;;5114301;28;20110;-76
2021/11/16 10:53:32;;;;;;;8.48;5.43;;;15.80;34.30;;;;;;5114090;28;20062;-76
2021/11/16 10:56:00;;;;;;;8.55;4.40;;;15.50;34.60;;;;;;5114262;28;20484;-76
2021/11/16 10:58:31;;;;;;;6.38;4.57;;;15.40;35.20;;;;;;5117912;28;20042;-76
2021/11/16 11:01:03;;;;;;;7.65;4.85;;;15.50;35.40;;;;;;5126563;28;20016;-77
2021/11/16 11:03:33;;;;;;;6.45;4.60;;;15.60;35.20;;;;;;5104287;28;20115;-77
2021/11/16 11:06:09;;;;;;;7.45;5.00;;;15.70;35.40;;;;;;5096439;28;20112;-76
2021/11/16 11:09:02;;;;;;;5.97;4.22;;;15.90;35.20;;;;;;5095994;28;20047;-77
2021/11/16 11:11:42;;;;;;;8.35;4.75;;;16.30;34.80;;;;;;5114569;28;20080;-76
2021/11/16 11:14:18;;;;;;;8.30;5.13;;;16.80;34.30;;;;;;5096452;28;20023;-76
2021/11/16 11:16:57;;;;;;;;;;;16.70;33.90;;;;;;5115110;28;20027;-77
2021/11/16 11:19:29;;;;;;;7.05;4.80;;;16.60;34.40;;;;;;5114476;28;20006;-76
2021/11/16 11:22:03;;;;;;;7.45;5.32;;;16.20;34.10;;;;;;5095780;28;20024;-77
2021/11/16 11:24:59;;;;;;;8.75;5.50;;;16.10;34.10;;;;;;5095716;28;20044;-77
2021/11/16 11:27:41;;;;;;;7.78;5.00;;;15.80;34.00;;;;;;5113282;28;20173;-76
2021/11/16 11:30:16;;;;;;;8.25;5.57;;;15.30;34.30;;;;;;5096045;28;20027;-76
2021/11/16 11:32:44;;;;;;;7.05;5.10;;;15.30;35.00;;;;;;5114066;28;20076;-77
2021/11/16 11:35:10;;;;;;;7.28;5.00;;;15.40;35.00;;;;;;5113878;28;20028;-77
2021/11/16 11:37:36;;;;;;;13.15;7.82;;;15.50;35.30;;;;;;5114034;28;20377;-76
2021/11/16 11:40:29;;;;;;;7.63;5.38;;;15.80;35.00;;;;;;5113968;28;20115;-77
2021/11/16 11:43:22;;;;;;;10.55;5.25;;;16.10;34.70;;;;;;5082168;28;20032;-76
2021/11/16 11:45:48;;;;;;;10.98;5.25;;;16.10;34.50;;;;;;5102891;28;20114;-76
2021/11/16 11:48:26;;;;;;;8.63;5.00;;;16.10;34.40;;;;;;5095718;28;20028;-76
2021/11/16 11:51:10;;;;;;;6.32;4.65;;;15.70;34.30;;;;;;5117047;28;20030;-76
2021/11/16 11:53:37;;;;;;;6.22;4.72;;;15.60;34.40;;;;;;5111973;28;20100;-77
2021/11/16 11:56:10;;;;;;;7.85;4.80;;;15.80;34.50;;;;;;5118706;28;20027;-77
2021/11/16 11:58:41;;;;;;;13.98;8.88;;;15.80;34.50;;;;;;5103306;28;20380;-75
2021/11/16 12:01:10;;;;;;;11.55;6.80;;;15.60;34.40;;;;;;5117712;28;20027;-76
2021/11/16 12:03:38;;;;;;;15.02;8.25;;;15.10;34.50;;;;;;5098963;28;20027;-76
2021/11/16 12:06:04;;;;;;;26.55;14.32;;;14.50;35.00;;;;;;5099125;28;20387;-76
2021/11/16 12:08:30;;;;;;;8.23;6.22;;;14.10;35.50;;;;;;5098928;28;20043;-76
2021/11/16 12:10:56;;;;;;;8.73;5.90;;;14.00;36.10;;;;;;5117163;28;20032;-76
2021/11/16 12:13:24;;;;;;;8.38;6.03;;;13.90;36.20;;;;;;5099155;28;20031;-76
2021/11/16 12:16:08;;;;;;;7.90;6.32;;;14.00;36.40;;;;;;5098989;28;20031;-77
2021/11/16 12:18:41;;;;;;;8.57;5.75;;;13.90;36.50;;;;;;5099343;28;20019;-77
2021/11/16 12:21:28;;;;;;;7.13;5.32;;;13.80;36.70;;;;;;5117629;28;20106;-76
2021/11/16 12:23:58;;;;;;;7.60;4.80;;;13.60;36.60;;;;;;5099022;28;20378;-76
2021/11/16 12:26:25;;;;;;;7.32;4.47;;;13.60;36.60;;;;;;5117725;28;20079;-75
2021/11/16 12:28:51;;;;;;;7.57;5.00;;;13.10;36.70;;;;;;5117078;28;20040;-77
2021/11/16 12:31:26;;;;;;;6.90;4.97;;;12.80;37.00;;;;;;5098879;28;20377;-76
2021/11/16 12:33:53;;;;;;;7.55;4.95;;;12.60;37.50;;;;;;5099031;28;20028;-77
2021/11/16 12:36:43;;;;;;;7.63;5.60;;;12.50;37.70;;;;;;5098572;28;20039;-78
2021/11/16 12:39:23;;;;;;;11.02;5.95;;;12.30;38.10;;;;;;5099367;28;20032;-77
2021/11/16 12:41:54;;;;;;;7.97;4.90;;;12.00;38.40;;;;;;5101030;28;20032;-76
2021/11/16 12:44:32;;;;;;;13.02;6.18;;;11.40;39.00;;;;;;5119978;28;20465;-77
2021/11/16 12:47:09;;;;;;;9.45;5.97;;;10.90;40.00;;;;;;5122687;28;20027;-78
2021/11/16 12:49:38;;;;;;;9.70;6.28;;;10.30;40.60;;;;;;5129751;28;20459;-77
2021/11/16 12:52:12;;;;;;;8.60;5.80;;;9.80;41.10;;;;;;5126160;28;20389;-77
2021/11/16 12:54:40;;;;;;;14.07;9.27;;;9.20;41.90;;;;;;5123035;28;20020;-75
2021/11/16 12:57:15;;;;;;;14.25;7.80;;;8.80;42.70;;;;;;5100218;28;20026;-77
2021/11/16 12:59:53;;;;;;;9.02;6.30;;;8.40;43.50;;;;;;5118208;28;20065;-78
2021/11/16 13:02:32;;;;;;;10.27;6.55;;;8.00;44.20;;;;;;5098215;28;20024;-76
2021/11/16 13:05:08;;;;;;;11.00;6.22;;;7.70;44.90;;;;;;5098659;28;20095;-77
2021/11/16 13:07:35;;;;;;;8.38;6.10;;;7.40;45.60;;;;;;5098337;28;20507;-79
2021/11/16 13:10:10;;;;;;;9.55;6.50;;;7.20;46.00;;;;;;5098606;28;20024;-77
2021/11/16 13:12:41;;;;;;;14.40;8.07;;;7.00;46.70;;;;;;5117201;28;20027;-76
2021/11/16 13:15:08;;;;;;;13.85;9.63;;;6.80;47.00;;;;;;5098436;28;20092;-76
2021/11/16 13:17:51;;;;;;;9.30;6.35;;;6.70;47.10;;;;;;5116553;28;20023;-78